Wahoo, NE

4:55 PM CST on January 17, 2018 (GMT -0600)
Wahoo Municipal

Weather History for KAHQ - November, 2013

Change the Weather History Date:

Thursday, November 28, 2013

  Actual Average Record
Temperature  
Mean Temperature 24 °F -  
Max Temperature 35 °F 38 °F 63 °F (1963)
Min Temperature 14 °F 18 °F -4 °F (1976)
Degree Days  
Heating Degree Days 40    
Moisture  
Dew Point 17 °F    
Average Humidity 66    
Maximum Humidity 87    
Minimum Humidity 43    
Precipitation  
Precipitation 0.00 in - - ()
Sea Level Pressure  
Sea Level Pressure 30.33 in    
Wind  
Wind Speed 12 mph (NNW)    
Max Wind Speed 23 mph    
Max Gust Speed 28 mph    
Visibility 10 miles    
Events      
Averages and records for this station are not official NWS values.
T = Trace of Precipitation, MM = Missing Value Source: NWS Daily Summary

Daily Weather History Graph

Daily Weather History Graph

Search for Another Location

Airport or City:

Trip Planner

Search our weather history database for the weather conditions in past years. The results will help you decide how hot, cold, wet, or windy it might be!

Date:

Astronomy

Nov. 28, 2013 Rise Set
Actual Time 7:29 AM CST 4:58 PM CST
Civil Twilight 6:59 AM CST 5:29 PM CST
Nautical Twilight 6:24 AM CST 6:03 PM CST
Astronomical Twilight 5:51 AM CST 6:36 PM CST
Moon 2:30 AM CST (11/28) 2:11 PM CST (11/28)
Length of Visible Light 10h 30m
Length of Day
9h 29m
Waning Crescent, 22% of the Moon is Illuminated
Nov 28
Waning Crescent
Dec 2
New
Dec 9
First Quarter
Dec 17
Full
Dec 25
Last Quarter

Hourly Weather History & Observations

Time (CST) Temp. Windchill Dew Point Humidity Pressure Visibility Wind Dir Wind Speed Gust Speed Precip Events Conditions
12:15 AM 29.3 °F 23.2 °F 19.9 °F 68% 30.06 in 10.0 mi West 5.8 mph - N/A   Clear
12:35 AM 32.0 °F 23.6 °F 21.9 °F 66% 30.07 in 10.0 mi NW 10.4 mph - N/A   Clear
12:55 AM 34.7 °F 25.9 °F 23.0 °F 62% 30.07 in 10.0 mi NW 12.7 mph 20.7 mph N/A   Clear
1:15 AM 33.8 °F 24.8 °F 22.6 °F 64% 30.08 in 10.0 mi NNW 12.7 mph - N/A   Clear
1:35 AM 33.3 °F 23.2 °F 22.1 °F 64% 30.09 in 10.0 mi NW 15.0 mph 20.7 mph N/A   Clear
1:55 AM 32.0 °F 21.2 °F 21.9 °F 66% 30.09 in 10.0 mi NNW 16.1 mph 21.9 mph N/A   Clear
2:15 AM 32.0 °F 20.8 °F 21.7 °F 66% 30.10 in 10.0 mi NNW 17.3 mph - N/A   Clear
2:35 AM 31.6 °F 20.4 °F 21.2 °F 65% 30.11 in 10.0 mi NNW 17.3 mph 23.0 mph N/A   Clear
2:55 AM 30.7 °F 20.0 °F 21.0 °F 67% 30.13 in 10.0 mi NNW 15.0 mph - N/A   Clear
3:15 AM 30.2 °F 18.5 °F 20.5 °F 67% 30.13 in 10.0 mi NNW 17.3 mph 24.2 mph N/A   Clear
3:35 AM 29.3 °F 18.2 °F 20.3 °F 69% 30.15 in 10.0 mi NNW 15.0 mph 23.0 mph N/A   Clear
3:55 AM 28.4 °F 17.5 °F 20.3 °F 72% 30.15 in 10.0 mi NNW 13.8 mph - N/A   Clear
4:15 AM 27.7 °F 16.1 °F 20.3 °F 74% 30.16 in 10.0 mi NNW 15.0 mph 20.7 mph N/A   Clear
4:35 AM 27.1 °F 13.8 °F 19.9 °F 74% 30.17 in 10.0 mi NNW 19.6 mph 24.2 mph N/A   Clear
4:55 AM 26.2 °F 11.5 °F 18.9 °F 74% 30.18 in 10.0 mi NNW 23.0 mph - N/A   Clear
5:15 AM 25.7 °F 11.9 °F 18.1 °F 73% 30.20 in 10.0 mi NNW 19.6 mph 27.6 mph N/A   Clear
5:35 AM 24.8 °F 12.9 °F 17.6 °F 74% 30.22 in 10.0 mi NNW 13.8 mph - N/A   Clear
5:55 AM 24.1 °F 13.7 °F 17.6 °F 76% 30.24 in 10.0 mi NNW 10.4 mph 16.1 mph N/A   Clear
6:15 AM 23.4 °F 11.1 °F 17.8 °F 79% 30.24 in 10.0 mi NNW 13.8 mph - N/A   Clear
6:35 AM 23.0 °F 13.1 °F 18.1 °F 82% 30.26 in 10.0 mi NNW 9.2 mph - N/A   Scattered Clouds
6:55 AM 24.1 °F 11.5 °F 19.4 °F 82% 30.26 in 10.0 mi North 15.0 mph - N/A   Overcast
7:15 AM 26.2 °F 13.4 °F 20.7 °F 79% 30.27 in 10.0 mi North 17.3 mph - N/A   Overcast
7:35 AM 26.6 °F 13.8 °F 20.3 °F 77% 30.28 in 10.0 mi NNW 17.3 mph - N/A   Overcast
7:55 AM 27.5 °F 15.0 °F 20.8 °F 76% 30.30 in 10.0 mi NNW 17.3 mph 21.9 mph N/A   Overcast
8:15 AM 27.7 °F 16.1 °F 21.0 °F 76% 30.31 in 10.0 mi North 15.0 mph 20.7 mph N/A   Overcast
8:35 AM 28.0 °F 15.7 °F 21.0 °F 75% 30.32 in 10.0 mi North 17.3 mph - N/A   Overcast
8:55 AM 28.4 °F 16.6 °F 21.0 °F 74% 30.33 in 10.0 mi North 16.1 mph 20.7 mph N/A   Overcast
9:15 AM 28.4 °F 15.4 °F 21.0 °F 74% 30.34 in 10.0 mi North 19.6 mph 23.0 mph N/A   Overcast
9:35 AM 28.4 °F 15.8 °F 20.5 °F 72% 30.35 in 10.0 mi North 18.4 mph 24.2 mph N/A   Overcast
9:55 AM 28.9 °F 16.5 °F 20.5 °F 71% 30.36 in 10.0 mi NNW 18.4 mph 23.0 mph N/A   Overcast
10:15 AM 29.1 °F 16.4 °F 19.4 °F 67% 30.37 in 10.0 mi NNW 19.6 mph - N/A   Overcast
10:35 AM 29.5 °F 16.8 °F 18.7 °F 64% 30.38 in 10.0 mi North 19.6 mph 24.2 mph N/A   Overcast
10:55 AM 29.5 °F 16.8 °F 17.4 °F 61% 30.38 in 10.0 mi North 19.6 mph 25.3 mph N/A   Mostly Cloudy
11:15 AM 31.1 °F 19.3 °F 16.5 °F 55% 30.38 in 10.0 mi North 18.4 mph 25.3 mph N/A   Scattered Clouds
11:35 AM 32.0 °F 20.8 °F 16.0 °F 52% 30.38 in 10.0 mi North 17.3 mph 21.9 mph N/A   Clear
11:55 AM 32.2 °F 20.4 °F 15.8 °F 51% 30.38 in 10.0 mi North 19.6 mph 25.3 mph N/A   Clear
12:15 PM 33.1 °F 21.9 °F 15.6 °F 49% 30.38 in 10.0 mi NNW 18.4 mph 21.9 mph N/A   Clear
12:35 PM 33.4 °F 22.7 °F 15.6 °F 48% 30.38 in 10.0 mi North 17.3 mph - N/A   Clear
12:55 PM 33.8 °F 24.3 °F 15.3 °F 47% 30.38 in 10.0 mi North 13.8 mph - N/A   Clear
1:15 PM 34.3 °F 25.0 °F 15.1 °F 45% 30.38 in 10.0 mi North 13.8 mph - N/A   Clear
1:35 PM 34.9 °F 26.6 °F 15.1 °F 44% 30.38 in 10.0 mi North 11.5 mph 17.3 mph N/A   Clear
1:55 PM 34.9 °F 27.1 °F 15.3 °F 45% 30.37 in 10.0 mi North 10.4 mph 18.4 mph N/A   Clear
2:15 PM 35.2 °F 26.6 °F 15.3 °F 44% 30.37 in 10.0 mi North 12.7 mph 17.3 mph N/A   Clear
2:35 PM 35.4 °F 26.8 °F 15.1 °F 43% 30.37 in 10.0 mi North 12.7 mph - N/A   Clear
2:55 PM 35.6 °F 28.6 °F 15.6 °F 44% 30.38 in 10.0 mi North 9.2 mph - N/A   Clear
3:15 PM 35.1 °F 27.9 °F 15.8 °F 45% 30.38 in 10.0 mi North 9.2 mph - N/A   Clear
3:35 PM 34.5 °F 26.7 °F 16.3 °F 48% 30.39 in 10.0 mi North 10.4 mph 17.3 mph N/A   Clear
3:55 PM 34.0 °F 26.6 °F 16.5 °F 49% 30.40 in 10.0 mi North 9.2 mph - N/A   Clear
4:15 PM 33.3 °F 26.4 °F 16.2 °F 50% 30.40 in 10.0 mi North 8.1 mph - N/A   Clear
4:35 PM 32.0 °F 24.8 °F 16.0 °F 52% 30.41 in 10.0 mi North 8.1 mph - N/A   Clear
4:55 PM 29.3 °F 22.3 °F 15.4 °F 56% 30.41 in 10.0 mi North 6.9 mph - N/A   Clear
5:15 PM 27.5 °F 21.1 °F 14.7 °F 59% 30.42 in 10.0 mi North 5.8 mph - N/A   Clear
5:35 PM 26.4 °F 20.9 °F 14.5 °F 61% 30.42 in 10.0 mi NNW 4.6 mph - N/A   Clear
5:55 PM 25.3 °F 21.1 °F 15.1 °F 65% 30.43 in 10.0 mi NNW 3.5 mph - N/A   Clear
6:15 PM 25.0 °F - 14.7 °F 65% 30.44 in 10.0 mi Calm Calm - N/A   Clear
6:35 PM 24.3 °F 18.4 °F 14.0 °F 65% 30.44 in 10.0 mi NNW 4.6 mph - N/A   Clear
6:55 PM 23.9 °F 18.0 °F 15.1 °F 69% 30.44 in 10.0 mi NNW 4.6 mph - N/A   Clear
7:15 PM 22.5 °F 14.1 °F 13.8 °F 69% 30.44 in 10.0 mi NNW 6.9 mph - N/A   Clear
7:35 PM 20.8 °F 16.0 °F 13.6 °F 74% 30.44 in 10.0 mi NNW 3.5 mph - N/A   Clear
7:55 PM 21.0 °F 14.6 °F 14.0 °F 74% 30.44 in 10.0 mi NNW 4.6 mph - N/A   Clear
8:15 PM 21.2 °F - 13.8 °F 73% 30.45 in 10.0 mi Calm Calm - N/A   Clear
8:35 PM 20.7 °F 15.8 °F 13.8 °F 75% 30.45 in 10.0 mi NNW 3.5 mph - N/A   Clear
8:55 PM 15.8 °F - 10.0 °F 78% 30.45 in 10.0 mi Calm Calm - N/A   Clear
9:15 PM 18.3 °F 13.1 °F 12.2 °F 77% 30.45 in 10.0 mi NNW 3.5 mph - N/A   Clear
9:35 PM 18.3 °F - 12.9 °F 79% 30.46 in 10.0 mi Calm Calm - N/A   Clear
9:55 PM 19.0 °F - 14.7 °F 83% 30.47 in 10.0 mi Calm Calm - N/A   Clear
10:15 PM 19.9 °F - 16.7 °F 87% 30.47 in 10.0 mi Calm Calm - N/A   Clear
10:35 PM 19.4 °F - 14.7 °F 82% 30.47 in 10.0 mi Calm Calm - N/A   Clear
10:55 PM 16.2 °F - 11.1 °F 81% 30.47 in 10.0 mi Calm Calm - N/A   Clear
11:15 PM 14.4 °F 8.6 °F 10.2 °F 84% 30.47 in 10.0 mi North 3.5 mph - N/A   Clear
11:35 PM 14.4 °F 8.6 °F 10.4 °F 84% 30.46 in 10.0 mi North 3.5 mph - N/A   Clear
11:55 PM 14.2 °F - 10.0 °F 84% 30.47 in 10.0 mi Calm Calm - N/A   Clear